Air Quality Table

TIMESTAMP NO2 SO2 PM10 PM2.5 TEMP HUM AIRPRES WS WD NO
2023-03-24 23:00 32.15 µg/m3 0.55 µg/m3 23.71 µg/m3 13.68 µg/m3 14.25 °C 86.64 % 1,017.80 mbar 2.85 m/s 190.95 Deg 1.45 µg/m3
2023-03-24 22:00 46.01 µg/m3 1.13 µg/m3 22.9 µg/m3 12.59 µg/m3 14.72 °C 83.94 % 1,017.69 mbar 2.65 m/s 229.07 Deg 5.44 µg/m3
2023-03-24 21:00 41.83 µg/m3 1.41 µg/m3 28.24 µg/m3 17.19 µg/m3 14.81 °C 84.34 % 1,017.47 mbar 4.2 m/s 215.13 Deg 11 µg/m3
2023-03-24 20:00 27.71 µg/m3 0.99 µg/m3 19.73 µg/m3 10.72 µg/m3 15.24 °C 82.3 % 1,017.11 mbar 3.87 m/s 234.28 Deg 2.01 µg/m3
2023-03-24 19:00 22.79 µg/m3 0.74 µg/m3 18.8 µg/m3 10.36 µg/m3 15.64 °C 79.45 % 1,017.07 mbar 4.85 m/s 231.28 Deg 2.96 µg/m3
2023-03-24 18:00 15.66 µg/m3 0.97 µg/m3 18.75 µg/m3 10.41 µg/m3 16.51 °C 73.87 % 1,017.16 mbar 5.39 m/s 223.8 Deg 3.28 µg/m3
2023-03-24 17:00 17.38 µg/m3 1.14 µg/m3 18.7 µg/m3 10.02 µg/m3 17.82 °C 60.91 % 1,017.08 mbar 5.27 m/s 245.06 Deg 4.04 µg/m3
2023-03-24 16:00 17.53 µg/m3 1.81 µg/m3 19.03 µg/m3 9.91 µg/m3 18.53 °C 54.78 % 1,017.09 mbar 6.28 m/s 235.08 Deg 5.5 µg/m3
2023-03-24 15:00 16.53 µg/m3 1.97 µg/m3 19.47 µg/m3 9.42 µg/m3 19.5 °C 42.1 % 1,017.41 mbar 6.97 m/s 235.68 Deg 5.74 µg/m3
2023-03-24 14:00 25.55 µg/m3 2.3 µg/m3 20.63 µg/m3 9.7 µg/m3 19.59 °C 46.99 % 1,017.89 mbar 5.06 m/s 249.65 Deg 8.41 µg/m3
2023-03-24 13:00 18.25 µg/m3 2.17 µg/m3 22.23 µg/m3 10.7 µg/m3 19.09 °C 54.22 % 1,018.35 mbar 4.8 m/s 250.63 Deg 4.99 µg/m3
2023-03-24 12:00 17.5 µg/m3 2.26 µg/m3 31.99 µg/m3 12.62 µg/m3 18.84 °C 68.36 % 1,018.53 mbar 1.64 m/s 282.97 Deg 4.02 µg/m3
2023-03-24 11:00 20.29 µg/m3 2.26 µg/m3 32.14 µg/m3 13.13 µg/m3 18.52 °C 69.41 % 1,018.37 mbar 1.8 m/s 296.61 Deg 4.24 µg/m3
2023-03-24 10:00 32.06 µg/m3 2.25 µg/m3 29.89 µg/m3 14.47 µg/m3 17.11 °C 78.65 % 1,018.32 mbar 2.5 m/s 254.29 Deg 8.83 µg/m3
2023-03-24 09:00 53.1 µg/m3 2.54 µg/m3 36.99 µg/m3 18.56 µg/m3 15.87 °C 81.88 % 1,018.18 mbar 2.16 m/s 220.51 Deg 22.86 µg/m3
2023-03-24 08:00 77.75 µg/m3 4.1 µg/m3 63.11 µg/m3 30.69 µg/m3 13.08 °C 84.19 % 1,017.89 mbar 1.63 m/s 197.17 Deg 117.67 µg/m3
2023-03-24 07:00 64.58 µg/m3 3.36 µg/m3 50.94 µg/m3 24.56 µg/m3 11.92 °C 87.94 % 1,017.55 mbar 1.89 m/s 207.21 Deg 78.05 µg/m3
2023-03-24 06:00 58.96 µg/m3 2.64 µg/m3 45.62 µg/m3 21.98 µg/m3 12.14 °C 89.22 % 1,017.26 mbar 2.04 m/s 209.89 Deg 40.57 µg/m3
2023-03-24 05:00 55.89 µg/m3 0.13 µg/m3 44.49 µg/m3 21.59 µg/m3 12.74 °C 89.22 % 1,016.88 mbar 1.55 m/s 207.08 Deg 12.66 µg/m3
2023-03-24 04:00 57.07 µg/m3 2.83 µg/m3 39.99 µg/m3 19.89 µg/m3 13.61 °C 85.86 % 1,016.71 mbar 1.18 m/s 208.27 Deg 4.12 µg/m3
2023-03-24 03:00 57.27 µg/m3 2.44 µg/m3 31.21 µg/m3 16.29 µg/m3 14.11 °C 82.18 % 1,016.79 mbar 1.31 m/s 228.28 Deg 18.58 µg/m3
2023-03-24 02:00 42.52 µg/m3 2.36 µg/m3 35.11 µg/m3 17.61 µg/m3 14.58 °C 79.86 % 1,017.12 mbar 0.57 m/s 192.65 Deg 2.34 µg/m3

It is to be noted that the data is provisional and subject to quality assurance procedures. For validated data kindly refer your request to contact.air@era.org.mt